If you wish to contribute or participate in the discussions about articles you are invited to join SKYbrary as a registered user

 Actions

Cadete FAP Guillermo Del Castillo Paredes Airport

From SKYbrary Wiki

SPST
Airport
ICAO: SPST – IATA: TPP
Summary
Name Cadete FAP Guillermo Del Castillo Paredes Airport
Region South America and Caribbean
Territory Peru PE.gif
Location Tarapoto, San Martin
Serving Tarapoto
Elevation 264.871 m
869 ft
869 ft264.871 m
Type medium airport
Coordinates 6° 30' 31.47" S, 76° 22' 23.69" W
Runways
Designator Length Width Surface ROPS
17/35 2600 m8,530.184 ft
45 m147.638 ft
ASP /


METAR
Observation SPST 150300Z 00000KT 9999 FEW025 24/22 Q1012 RMK BIRD HAZARD RWY 17/35 PP000
Station Tarapoto
Date/Time 15 October 2019 03:00:00
Wind direction
Wind speed 00 kts
Lowest cloud amount few clouds
Temperature 24°C
Dew point 22°C
Humidity 88%
QNH 1012 hPa
Weather condition n/a

Airport serving Tarapoto, Peru.

Climatology

Equatorial climate (Köppen climate classification Af).

Maps

Terrain

Loading map...

Airport Layout

Loading map...


Accidents & Serious Incidents at or in vicinity of SPST

None on SKYbrary